sensor_id;sensor_type;location;lat;lon;timestamp;pressure;altitude;pressure_sealevel;temperature;humidity
9307;BME280;4691;47.612;7.610;2023-05-02T00:00:32;98374.81;;;12.14;100.00
9307;BME280;4691;47.612;7.610;2023-05-02T00:02:57;98382.44;;;12.09;100.00
9307;BME280;4691;47.612;7.610;2023-05-02T00:05:23;98374.56;;;12.08;100.00
9307;BME280;4691;47.612;7.610;2023-05-02T00:07:50;98394.28;;;12.07;100.00
9307;BME280;4691;47.612;7.610;2023-05-02T00:10:16;98390.88;;;12.05;100.00
9307;BME280;4691;47.612;7.610;2023-05-02T00:12:41;98403.59;;;12.03;100.00
9307;BME280;4691;47.612;7.610;2023-05-02T00:15:07;98414.56;;;11.99;100.00
9307;BME280;4691;47.612;7.610;2023-05-02T00:17:32;98425.28;;;11.99;100.00
9307;BME280;4691;47.612;7.610;2023-05-02T00:19:58;98440.69;;;11.97;100.00
9307;BME280;4691;47.612;7.610;2023-05-02T00:22:23;98440.94;;;11.94;100.00
9307;BME280;4691;47.612;7.610;2023-05-02T00:24:48;98450.81;;;11.94;100.00
9307;BME280;4691;47.612;7.610;2023-05-02T00:27:14;98467.03;;;11.92;100.00
9307;BME280;4691;47.612;7.610;2023-05-02T00:29:39;98481.41;;;11.91;100.00
9307;BME280;4691;47.612;7.610;2023-05-02T00:32:05;98502.00;;;11.91;100.00
9307;BME280;4691;47.612;7.610;2023-05-02T00:34:31;98527.09;;;11.90;100.00
9307;BME280;4691;47.612;7.610;2023-05-02T00:36:56;98549.66;;;11.97;100.00
9307;BME280;4691;47.612;7.610;2023-05-02T00:39:22;98620.78;;;12.01;100.00
9307;BME280;4691;47.612;7.610;2023-05-02T00:41:47;98647.69;;;11.99;100.00
9307;BME280;4691;47.612;7.610;2023-05-02T00:44:13;98660.84;;;12.03;100.00
9307;BME280;4691;47.612;7.610;2023-05-02T00:46:38;98649.53;;;11.99;100.00
9307;BME280;4691;47.612;7.610;2023-05-02T00:49:03;98649.53;;;11.99;100.00
9307;BME280;4691;47.612;7.610;2023-05-02T00:51:29;98635.41;;;11.97;100.00
9307;BME280;4691;47.612;7.610;2023-05-02T00:53:55;98609.44;;;11.88;100.00
9307;BME280;4691;47.612;7.610;2023-05-02T00:56:21;98583.13;;;11.82;100.00
9307;BME280;4691;47.612;7.610;2023-05-02T00:58:47;98579.75;;;11.80;100.00
9307;BME280;4691;47.612;7.610;2023-05-02T01:03:45;98577.06;;;11.80;100.00
9307;BME280;4691;47.612;7.610;2023-05-02T01:08:57;98557.16;;;11.72;100.00
9307;BME280;4691;47.612;7.610;2023-05-02T01:11:43;98553.03;;;11.68;100.00
9307;BME280;4691;47.612;7.610;2023-05-02T01:14:13;98539.19;;;11.63;100.00
9307;BME280;4691;47.612;7.610;2023-05-02T01:16:40;98538.75;;;11.58;100.00
9307;BME280;4691;47.612;7.610;2023-05-02T01:19:31;98517.88;;;11.52;100.00
9307;BME280;4691;47.612;7.610;2023-05-02T01:22:01;98512.78;;;11.49;100.00
9307;BME280;4691;47.612;7.610;2023-05-02T01:27:40;98507.16;;;11.52;100.00
9307;BME280;4691;47.612;7.610;2023-05-02T01:30:08;98498.69;;;11.47;100.00
9307;BME280;4691;47.612;7.610;2023-05-02T01:32:37;98505.72;;;11.48;100.00
9307;BME280;4691;47.612;7.610;2023-05-02T01:35:04;98512.06;;;11.47;100.00
9307;BME280;4691;47.612;7.610;2023-05-02T01:37:31;98522.06;;;11.45;100.00
9307;BME280;4691;47.612;7.610;2023-05-02T01:39:58;98535.59;;;11.43;100.00
9307;BME280;4691;47.612;7.610;2023-05-02T01:42:25;98548.09;;;11.43;100.00
9307;BME280;4691;47.612;7.610;2023-05-02T01:44:53;98570.63;;;11.40;100.00
9307;BME280;4691;47.612;7.610;2023-05-02T01:47:21;98585.13;;;11.38;100.00
9307;BME280;4691;47.612;7.610;2023-05-02T01:49:48;98599.50;;;11.37;100.00
9307;BME280;4691;47.612;7.610;2023-05-02T01:52:14;98626.81;;;11.30;100.00
9307;BME280;4691;47.612;7.610;2023-05-02T01:54:41;98646.03;;;11.24;100.00
9307;BME280;4691;47.612;7.610;2023-05-02T01:57:08;98649.97;;;11.20;100.00
9307;BME280;4691;47.612;7.610;2023-05-02T01:59:36;98668.06;;;11.17;100.00
9307;BME280;4691;47.612;7.610;2023-05-02T02:02:03;98695.22;;;11.12;100.00
9307;BME280;4691;47.612;7.610;2023-05-02T02:04:30;98708.84;;;11.09;100.00
9307;BME280;4691;47.612;7.610;2023-05-02T02:07:01;98729.91;;;11.02;100.00
9307;BME280;4691;47.612;7.610;2023-05-02T02:09:27;98805.06;;;10.99;100.00
9307;BME280;4691;47.612;7.610;2023-05-02T02:12:00;98829.28;;;10.98;100.00
9307;BME280;4691;47.612;7.610;2023-05-02T02:14:37;98843.75;;;10.95;100.00
9307;BME280;4691;47.612;7.610;2023-05-02T02:19:30;98658.66;;;11.33;100.00
9307;BME280;4691;47.612;7.610;2023-05-02T02:21:57;98662.66;;;10.96;100.00
9307;BME280;4691;47.612;7.610;2023-05-02T02:24:23;98670.13;;;10.92;100.00
9307;BME280;4691;47.612;7.610;2023-05-02T02:26:50;98644.47;;;10.89;100.00
9307;BME280;4691;47.612;7.610;2023-05-02T02:29:15;98661.00;;;10.83;100.00
9307;BME280;4691;47.612;7.610;2023-05-02T02:31:41;98689.94;;;10.78;100.00
9307;BME280;4691;47.612;7.610;2023-05-02T02:34:06;98723.50;;;10.82;100.00
9307;BME280;4691;47.612;7.610;2023-05-02T02:42:10;98748.91;;;10.65;100.00
9307;BME280;4691;47.612;7.610;2023-05-02T02:44:54;98764.94;;;10.65;100.00
9307;BME280;4691;47.612;7.610;2023-05-02T02:47:40;98771.91;;;10.79;100.00
9307;BME280;4691;47.612;7.610;2023-05-02T02:52:58;98744.06;;;10.82;100.00
9307;BME280;4691;47.612;7.610;2023-05-02T02:55:47;98724.00;;;10.65;100.00
9307;BME280;4691;47.612;7.610;2023-05-02T02:58:38;98728.72;;;10.73;100.00
9307;BME280;4691;47.612;7.610;2023-05-02T03:01:10;98694.09;;;10.37;100.00
9307;BME280;4691;47.612;7.610;2023-05-02T03:03:40;98713.56;;;10.28;100.00
9307;BME280;4691;47.612;7.610;2023-05-02T03:06:07;98726.44;;;10.57;100.00
9307;BME280;4691;47.612;7.610;2023-05-02T03:08:39;98684.38;;;10.59;100.00
9307;BME280;4691;47.612;7.610;2023-05-02T03:11:05;98642.56;;;10.58;100.00
9307;BME280;4691;47.612;7.610;2023-05-02T03:13:30;98615.13;;;10.44;100.00
9307;BME280;4691;47.612;7.610;2023-05-02T03:18:24;98550.72;;;10.48;100.00
9307;BME280;4691;47.612;7.610;2023-05-02T03:20:50;98515.00;;;10.49;100.00
9307;BME280;4691;47.612;7.610;2023-05-02T03:23:15;98478.59;;;10.36;100.00
9307;BME280;4691;47.612;7.610;2023-05-02T03:25:40;98457.53;;;9.99;100.00
9307;BME280;4691;47.612;7.610;2023-05-02T03:28:06;98491.06;;;9.92;100.00
9307;BME280;4691;47.612;7.610;2023-05-02T03:30:31;98504.88;;;9.86;100.00
9307;BME280;4691;47.612;7.610;2023-05-02T03:32:56;98520.16;;;10.18;100.00
9307;BME280;4691;47.612;7.610;2023-05-02T03:35:21;98505.44;;;10.23;100.00
9307;BME280;4691;47.612;7.610;2023-05-02T03:37:47;98477.69;;;9.81;100.00
9307;BME280;4691;47.612;7.610;2023-05-02T03:40:12;98494.16;;;10.09;100.00
9307;BME280;4691;47.612;7.610;2023-05-02T03:42:37;98481.91;;;10.06;100.00
9307;BME280;4691;47.612;7.610;2023-05-02T03:45:07;98500.16;;;9.90;100.00
9307;BME280;4691;47.612;7.610;2023-05-02T03:47:33;98497.13;;;9.60;100.00
9307;BME280;4691;47.612;7.610;2023-05-02T03:49:58;98518.25;;;9.64;100.00
9307;BME280;4691;47.612;7.610;2023-05-02T03:52:24;98556.09;;;9.91;100.00
9307;BME280;4691;47.612;7.610;2023-05-02T03:54:49;98563.63;;;9.86;100.00
9307;BME280;4691;47.612;7.610;2023-05-02T03:57:15;98569.47;;;9.91;100.00
9307;BME280;4691;47.612;7.610;2023-05-02T03:59:41;98570.44;;;9.90;100.00
9307;BME280;4691;47.612;7.610;2023-05-02T04:02:09;98556.34;;;9.88;100.00
9307;BME280;4691;47.612;7.610;2023-05-02T04:04:35;98551.75;;;9.90;100.00
9307;BME280;4691;47.612;7.610;2023-05-02T04:07:01;98543.97;;;9.87;100.00
9307;BME280;4691;47.612;7.610;2023-05-02T04:09:26;98539.72;;;9.51;100.00
9307;BME280;4691;47.612;7.610;2023-05-02T04:11:51;98587.91;;;9.72;100.00
9307;BME280;4691;47.612;7.610;2023-05-02T04:14:17;98598.44;;;9.73;100.00
9307;BME280;4691;47.612;7.610;2023-05-02T04:16:49;98606.47;;;9.73;100.00
9307;BME280;4691;47.612;7.610;2023-05-02T04:19:17;98611.63;;;9.41;100.00
9307;BME280;4691;47.612;7.610;2023-05-02T04:21:43;98685.72;;;9.73;100.00
9307;BME280;4691;47.612;7.610;2023-05-02T04:24:09;98683.06;;;9.73;100.00
9307;BME280;4691;47.612;7.610;2023-05-02T04:26:34;98667.59;;;9.54;100.00
9307;BME280;4691;47.612;7.610;2023-05-02T04:29:00;98714.09;;;9.63;100.00
9307;BME280;4691;47.612;7.610;2023-05-02T04:31:25;98739.84;;;9.64;100.00
9307;BME280;4691;47.612;7.610;2023-05-02T04:33:51;98769.31;;;9.62;100.00
9307;BME280;4691;47.612;7.610;2023-05-02T04:36:16;98793.63;;;9.70;100.00
9307;BME280;4691;47.612;7.610;2023-05-02T04:38:43;98810.03;;;9.77;100.00
9307;BME280;4691;47.612;7.610;2023-05-02T04:41:08;98845.13;;;9.59;100.00
9307;BME280;4691;47.612;7.610;2023-05-02T04:43:34;98901.91;;;9.74;100.00
9307;BME280;4691;47.612;7.610;2023-05-02T04:45:59;98962.50;;;9.98;100.00
9307;BME280;4691;47.612;7.610;2023-05-02T04:48:25;98988.84;;;10.15;100.00
9307;BME280;4691;47.612;7.610;2023-05-02T04:50:51;98988.63;;;10.18;100.00
9307;BME280;4691;47.612;7.610;2023-05-02T04:53:18;98996.69;;;10.06;100.00
9307;BME280;4691;47.612;7.610;2023-05-02T04:55:44;99017.81;;;10.09;100.00
9307;BME280;4691;47.612;7.610;2023-05-02T04:58:09;99025.94;;;10.20;100.00
9307;BME280;4691;47.612;7.610;2023-05-02T05:00:34;99026.53;;;10.23;100.00
9307;BME280;4691;47.612;7.610;2023-05-02T05:03:00;99017.34;;;9.91;100.00
9307;BME280;4691;47.612;7.610;2023-05-02T05:05:25;99037.19;;;10.12;100.00
9307;BME280;4691;47.612;7.610;2023-05-02T05:07:50;99057.47;;;10.15;100.00
9307;BME280;4691;47.612;7.610;2023-05-02T05:10:16;99069.63;;;10.19;100.00
9307;BME280;4691;47.612;7.610;2023-05-02T05:12:42;99028.31;;;9.99;100.00
9307;BME280;4691;47.612;7.610;2023-05-02T05:15:07;99022.81;;;9.89;100.00
9307;BME280;4691;47.612;7.610;2023-05-02T05:17:32;99028.22;;;10.00;100.00
9307;BME280;4691;47.612;7.610;2023-05-02T05:19:58;99000.47;;;10.14;100.00
9307;BME280;4691;47.612;7.610;2023-05-02T05:22:23;98968.22;;;10.17;100.00
9307;BME280;4691;47.612;7.610;2023-05-02T05:24:53;98917.50;;;10.05;100.00
9307;BME280;4691;47.612;7.610;2023-05-02T05:27:18;98917.31;;;10.19;100.00
9307;BME280;4691;47.612;7.610;2023-05-02T05:29:44;98888.19;;;10.27;100.00
9307;BME280;4691;47.612;7.610;2023-05-02T05:32:09;98870.16;;;10.31;100.00
9307;BME280;4691;47.612;7.610;2023-05-02T05:34:34;98845.38;;;10.40;100.00
9307;BME280;4691;47.612;7.610;2023-05-02T05:37:00;98846.13;;;10.18;100.00
9307;BME280;4691;47.612;7.610;2023-05-02T05:39:25;98888.50;;;10.35;100.00
9307;BME280;4691;47.612;7.610;2023-05-02T05:41:51;98919.13;;;10.42;100.00
9307;BME280;4691;47.612;7.610;2023-05-02T05:44:16;98935.50;;;10.62;100.00
9307;BME280;4691;47.612;7.610;2023-05-02T05:46:42;98931.16;;;10.72;100.00
9307;BME280;4691;47.612;7.610;2023-05-02T05:49:07;98902.22;;;10.77;100.00
9307;BME280;4691;47.612;7.610;2023-05-02T05:51:32;98882.75;;;10.86;100.00
9307;BME280;4691;47.612;7.610;2023-05-02T05:53:58;98855.41;;;10.94;100.00
9307;BME280;4691;47.612;7.610;2023-05-02T05:56:23;98822.59;;;10.70;100.00
9307;BME280;4691;47.612;7.610;2023-05-02T05:58:48;98844.81;;;10.81;100.00
9307;BME280;4691;47.612;7.610;2023-05-02T06:01:13;98856.50;;;10.92;100.00
9307;BME280;4691;47.612;7.610;2023-05-02T06:03:39;98810.78;;;11.06;100.00
9307;BME280;4691;47.612;7.610;2023-05-02T06:06:04;98760.16;;;11.14;100.00
9307;BME280;4691;47.612;7.610;2023-05-02T06:08:30;98717.09;;;11.17;100.00
9307;BME280;4691;47.612;7.610;2023-05-02T06:10:55;98679.13;;;11.23;100.00
9307;BME280;4691;47.612;7.610;2023-05-02T06:13:21;98652.03;;;11.17;100.00
9307;BME280;4691;47.612;7.610;2023-05-02T06:15:46;98638.34;;;11.31;100.00
9307;BME280;4691;47.612;7.610;2023-05-02T06:18:11;98597.31;;;11.09;100.00
9307;BME280;4691;47.612;7.610;2023-05-02T06:20:37;98607.13;;;11.20;100.00
9307;BME280;4691;47.612;7.610;2023-05-02T06:23:02;98610.97;;;11.27;100.00
9307;BME280;4691;47.612;7.610;2023-05-02T06:25:28;98588.59;;;11.28;100.00
9307;BME280;4691;47.612;7.610;2023-05-02T06:27:53;98553.16;;;11.15;100.00
9307;BME280;4691;47.612;7.610;2023-05-02T06:30:18;98552.16;;;11.37;100.00
9307;BME280;4691;47.612;7.610;2023-05-02T06:32:44;98531.22;;;11.21;100.00
9307;BME280;4691;47.612;7.610;2023-05-02T06:35:09;98531.13;;;11.32;100.00
9307;BME280;4691;47.612;7.610;2023-05-02T06:37:35;98546.50;;;11.30;100.00
9307;BME280;4691;47.612;7.610;2023-05-02T06:40:01;98544.91;;;11.49;100.00
9307;BME280;4691;47.612;7.610;2023-05-02T06:42:27;98551.34;;;11.67;100.00
9307;BME280;4691;47.612;7.610;2023-05-02T06:44:53;98547.00;;;11.66;100.00
9307;BME280;4691;47.612;7.610;2023-05-02T06:47:19;98556.25;;;11.62;100.00
9307;BME280;4691;47.612;7.610;2023-05-02T06:49:46;98559.66;;;11.64;100.00
9307;BME280;4691;47.612;7.610;2023-05-02T06:52:11;98574.97;;;11.83;100.00
9307;BME280;4691;47.612;7.610;2023-05-02T06:54:36;98588.06;;;12.07;100.00
9307;BME280;4691;47.612;7.610;2023-05-02T06:57:03;98608.16;;;12.13;100.00
9307;BME280;4691;47.612;7.610;2023-05-02T06:59:28;98635.56;;;12.26;100.00
9307;BME280;4691;47.612;7.610;2023-05-02T07:01:53;98648.81;;;12.28;100.00
9307;BME280;4691;47.612;7.610;2023-05-02T07:04:18;98734.78;;;12.05;100.00
9307;BME280;4691;47.612;7.610;2023-05-02T07:06:44;98792.44;;;12.20;100.00
9307;BME280;4691;47.612;7.610;2023-05-02T07:09:09;98824.97;;;11.95;100.00
9307;BME280;4691;47.612;7.610;2023-05-02T07:11:35;98845.88;;;12.01;100.00
9307;BME280;4691;47.612;7.610;2023-05-02T07:14:01;98868.47;;;12.19;100.00
9307;BME280;4691;47.612;7.610;2023-05-02T07:16:26;98892.28;;;12.02;100.00
9307;BME280;4691;47.612;7.610;2023-05-02T07:18:52;98905.34;;;12.27;100.00
9307;BME280;4691;47.612;7.610;2023-05-02T07:21:17;98938.72;;;12.34;100.00
9307;BME280;4691;47.612;7.610;2023-05-02T07:23:43;98956.13;;;12.40;100.00
9307;BME280;4691;47.612;7.610;2023-05-02T07:26:08;98967.59;;;12.42;100.00
9307;BME280;4691;47.612;7.610;2023-05-02T07:28:34;98992.94;;;12.38;100.00
9307;BME280;4691;47.612;7.610;2023-05-02T07:30:59;98995.88;;;12.46;100.00
9307;BME280;4691;47.612;7.610;2023-05-02T07:33:24;98994.34;;;12.53;100.00
9307;BME280;4691;47.612;7.610;2023-05-02T07:35:50;98991.09;;;12.50;100.00
9307;BME280;4691;47.612;7.610;2023-05-02T07:38:15;99003.50;;;12.62;100.00
9307;BME280;4691;47.612;7.610;2023-05-02T07:40:41;99011.63;;;12.72;100.00
9307;BME280;4691;47.612;7.610;2023-05-02T07:43:07;99008.03;;;12.82;100.00
9307;BME280;4691;47.612;7.610;2023-05-02T07:45:33;99036.13;;;12.99;100.00
9307;BME280;4691;47.612;7.610;2023-05-02T07:47:59;99043.88;;;13.14;100.00
9307;BME280;4691;47.612;7.610;2023-05-02T07:50:24;99047.97;;;13.29;100.00
9307;BME280;4691;47.612;7.610;2023-05-02T07:52:51;99059.34;;;13.42;100.00
9307;BME280;4691;47.612;7.610;2023-05-02T07:55:18;99068.19;;;13.54;100.00
9307;BME280;4691;47.612;7.610;2023-05-02T07:57:44;99089.94;;;13.72;100.00
9307;BME280;4691;47.612;7.610;2023-05-02T08:00:10;99093.78;;;13.79;100.00
9307;BME280;4691;47.612;7.610;2023-05-02T08:02:35;99123.56;;;13.87;100.00
9307;BME280;4691;47.612;7.610;2023-05-02T08:05:02;99141.28;;;14.00;100.00
9307;BME280;4691;47.612;7.610;2023-05-02T08:07:27;99152.31;;;13.97;100.00
9307;BME280;4691;47.612;7.610;2023-05-02T08:09:52;99165.03;;;14.15;100.00
9307;BME280;4691;47.612;7.610;2023-05-02T08:12:18;99171.75;;;14.10;100.00
9307;BME280;4691;47.612;7.610;2023-05-02T08:14:43;99190.69;;;14.29;100.00
9307;BME280;4691;47.612;7.610;2023-05-02T08:17:08;99193.72;;;14.36;100.00
9307;BME280;4691;47.612;7.610;2023-05-02T08:19:34;99208.28;;;14.64;100.00
9307;BME280;4691;47.612;7.610;2023-05-02T08:21:59;99235.56;;;14.80;100.00
9307;BME280;4691;47.612;7.610;2023-05-02T08:24:24;99238.88;;;15.03;100.00
9307;BME280;4691;47.612;7.610;2023-05-02T08:26:50;99248.22;;;14.99;100.00
9307;BME280;4691;47.612;7.610;2023-05-02T08:29:15;99249.50;;;15.05;100.00
9307;BME280;4691;47.612;7.610;2023-05-02T08:31:41;99264.22;;;14.91;100.00
9307;BME280;4691;47.612;7.610;2023-05-02T08:34:06;99273.66;;;15.16;100.00
9307;BME280;4691;47.612;7.610;2023-05-02T08:36:31;99275.13;;;15.40;100.00
9307;BME280;4691;47.612;7.610;2023-05-02T08:38:57;99276.53;;;15.34;100.00
9307;BME280;4691;47.612;7.610;2023-05-02T08:41:22;99282.38;;;15.49;100.00
9307;BME280;4691;47.612;7.610;2023-05-02T08:43:48;99286.63;;;15.42;100.00
9307;BME280;4691;47.612;7.610;2023-05-02T08:46:15;99288.41;;;15.22;100.00
9307;BME280;4691;47.612;7.610;2023-05-02T08:48:42;99291.00;;;15.43;100.00
9307;BME280;4691;47.612;7.610;2023-05-02T08:51:11;99291.75;;;15.64;100.00
9307;BME280;4691;47.612;7.610;2023-05-02T08:53:37;99289.34;;;16.00;100.00
9307;BME280;4691;47.612;7.610;2023-05-02T08:56:05;99291.03;;;16.30;100.00
9307;BME280;4691;47.612;7.610;2023-05-02T08:58:30;99299.59;;;16.73;100.00
9307;BME280;4691;47.612;7.610;2023-05-02T09:00:59;99301.75;;;16.79;100.00
9307;BME280;4691;47.612;7.610;2023-05-02T09:06:04;99303.28;;;16.82;100.00
9307;BME280;4691;47.612;7.610;2023-05-02T09:08:30;99299.47;;;17.39;100.00
9307;BME280;4691;47.612;7.610;2023-05-02T09:10:56;99303.81;;;17.23;100.00
9307;BME280;4691;47.612;7.610;2023-05-02T09:13:28;99306.97;;;17.18;100.00
9307;BME280;4691;47.612;7.610;2023-05-02T09:16:02;99310.25;;;16.84;100.00
9307;BME280;4691;47.612;7.610;2023-05-02T09:18:30;99316.25;;;16.68;100.00
9307;BME280;4691;47.612;7.610;2023-05-02T09:21:00;99307.94;;;16.42;100.00
9307;BME280;4691;47.612;7.610;2023-05-02T09:23:55;99318.00;;;16.60;100.00
9307;BME280;4691;47.612;7.610;2023-05-02T09:29:09;99319.53;;;16.62;100.00
9307;BME280;4691;47.612;7.610;2023-05-02T09:31:34;99320.28;;;16.54;100.00
9307;BME280;4691;47.612;7.610;2023-05-02T09:34:22;99317.28;;;16.48;100.00
9307;BME280;4691;47.612;7.610;2023-05-02T09:36:49;99319.75;;;16.02;100.00
9307;BME280;4691;47.612;7.610;2023-05-02T09:39:18;99327.88;;;16.69;100.00
9307;BME280;4691;47.612;7.610;2023-05-02T09:41:46;99312.28;;;17.37;100.00
9307;BME280;4691;47.612;7.610;2023-05-02T09:44:13;99314.91;;;17.29;100.00
9307;BME280;4691;47.612;7.610;2023-05-02T09:46:40;99312.00;;;17.86;100.00
9307;BME280;4691;47.612;7.610;2023-05-02T09:49:06;99302.34;;;18.45;100.00
9307;BME280;4691;47.612;7.610;2023-05-02T09:51:32;99305.00;;;18.37;100.00
9307;BME280;4691;47.612;7.610;2023-05-02T09:53:57;99301.91;;;18.58;100.00
9307;BME280;4691;47.612;7.610;2023-05-02T09:56:23;99303.91;;;19.08;100.00
9307;BME280;4691;47.612;7.610;2023-05-02T09:58:48;99302.72;;;19.45;100.00
9307;BME280;4691;47.612;7.610;2023-05-02T10:01:17;99275.78;;;21.30;100.00
9307;BME280;4691;47.612;7.610;2023-05-02T10:03:47;99273.75;;;21.24;100.00
9307;BME280;4691;47.612;7.610;2023-05-02T10:06:12;99308.16;;;19.53;100.00
9307;BME280;4691;47.612;7.610;2023-05-02T10:08:40;99321.78;;;19.70;100.00
9307;BME280;4691;47.612;7.610;2023-05-02T10:11:07;99295.84;;;20.82;100.00
9307;BME280;4691;47.612;7.610;2023-05-02T10:13:33;99279.63;;;21.05;100.00
9307;BME280;4691;47.612;7.610;2023-05-02T10:16:02;99315.19;;;19.30;100.00
9307;BME280;4691;47.612;7.610;2023-05-02T10:19:00;99322.63;;;18.67;100.00
9307;BME280;4691;47.612;7.610;2023-05-02T10:21:27;99289.44;;;20.34;100.00
9307;BME280;4691;47.612;7.610;2023-05-02T10:23:52;99290.63;;;20.64;100.00
9307;BME280;4691;47.612;7.610;2023-05-02T10:26:18;99274.63;;;22.10;100.00
9307;BME280;4691;47.612;7.610;2023-05-02T10:28:48;99229.22;;;23.44;100.00
9307;BME280;4691;47.612;7.610;2023-05-02T10:31:14;99243.91;;;22.39;100.00
9307;BME280;4691;47.612;7.610;2023-05-02T10:33:40;99220.44;;;23.13;100.00
9307;BME280;4691;47.612;7.610;2023-05-02T10:36:07;99222.88;;;22.48;100.00
9307;BME280;4691;47.612;7.610;2023-05-02T10:38:34;99238.59;;;23.06;100.00
9307;BME280;4691;47.612;7.610;2023-05-02T10:41:04;99226.59;;;23.36;100.00
9307;BME280;4691;47.612;7.610;2023-05-02T10:43:33;99208.44;;;24.36;100.00
9307;BME280;4691;47.612;7.610;2023-05-02T10:45:59;99198.34;;;25.06;100.00
9307;BME280;4691;47.612;7.610;2023-05-02T10:48:27;99187.53;;;24.50;100.00
9307;BME280;4691;47.612;7.610;2023-05-02T10:53:24;99213.56;;;23.53;100.00
9307;BME280;4691;47.612;7.610;2023-05-02T10:56:18;99208.16;;;23.60;100.00
9307;BME280;4691;47.612;7.610;2023-05-02T10:58:51;99210.56;;;23.84;100.00
9307;BME280;4691;47.612;7.610;2023-05-02T11:04:08;99209.34;;;23.94;100.00
9307;BME280;4691;47.612;7.610;2023-05-02T11:06:36;99192.56;;;24.46;100.00
9307;BME280;4691;47.612;7.610;2023-05-02T11:11:46;99184.31;;;23.68;100.00
9307;BME280;4691;47.612;7.610;2023-05-02T11:19:27;99206.78;;;23.85;100.00
9307;BME280;4691;47.612;7.610;2023-05-02T11:21:52;99207.78;;;23.63;100.00
9307;BME280;4691;47.612;7.610;2023-05-02T11:24:43;99187.50;;;24.15;100.00
9307;BME280;4691;47.612;7.610;2023-05-02T11:30:02;99193.66;;;24.87;100.00
9307;BME280;4691;47.612;7.610;2023-05-02T11:35:22;99164.59;;;24.86;100.00
9307;BME280;4691;47.612;7.610;2023-05-02T11:37:58;99163.25;;;24.68;100.00
9307;BME280;4691;47.612;7.610;2023-05-02T11:40:25;99189.22;;;23.95;100.00
9307;BME280;4691;47.612;7.610;2023-05-02T11:42:51;99178.03;;;23.89;100.00
9307;BME280;4691;47.612;7.610;2023-05-02T11:45:17;99174.91;;;24.21;100.00
9307;BME280;4691;47.612;7.610;2023-05-02T11:47:50;99179.59;;;23.56;100.00
9307;BME280;4691;47.612;7.610;2023-05-02T11:50:16;99145.69;;;24.84;100.00
9307;BME280;4691;47.612;7.610;2023-05-02T11:52:43;99130.50;;;25.43;100.00
9307;BME280;4691;47.612;7.610;2023-05-02T11:55:11;99138.09;;;24.86;100.00
9307;BME280;4691;47.612;7.610;2023-05-02T11:57:37;99157.72;;;25.03;100.00
9307;BME280;4691;47.612;7.610;2023-05-02T12:00:04;99166.38;;;24.30;100.00
9307;BME280;4691;47.612;7.610;2023-05-02T12:02:41;99162.03;;;23.65;100.00
9307;BME280;4691;47.612;7.610;2023-05-02T12:05:11;99139.50;;;24.69;100.00
9307;BME280;4691;47.612;7.610;2023-05-02T12:07:42;99139.94;;;24.72;100.00
9307;BME280;4691;47.612;7.610;2023-05-02T12:10:09;99130.31;;;24.83;100.00
9307;BME280;4691;47.612;7.610;2023-05-02T12:12:35;99114.47;;;25.27;100.00
9307;BME280;4691;47.612;7.610;2023-05-02T12:15:06;99131.22;;;23.93;100.00
9307;BME280;4691;47.612;7.610;2023-05-02T12:17:37;99140.50;;;23.98;100.00
9307;BME280;4691;47.612;7.610;2023-05-02T12:20:05;99110.91;;;25.33;100.00
9307;BME280;4691;47.612;7.610;2023-05-02T12:22:31;99105.47;;;25.59;100.00
9307;BME280;4691;47.612;7.610;2023-05-02T12:24:56;99076.81;;;25.49;100.00
9307;BME280;4691;47.612;7.610;2023-05-02T12:27:22;99085.66;;;25.71;100.00
9307;BME280;4691;47.612;7.610;2023-05-02T12:29:47;99096.63;;;25.57;100.00
9307;BME280;4691;47.612;7.610;2023-05-02T12:32:14;99086.06;;;24.66;100.00
9307;BME280;4691;47.612;7.610;2023-05-02T12:34:40;99080.09;;;24.97;100.00
9307;BME280;4691;47.612;7.610;2023-05-02T12:37:07;99104.56;;;24.29;100.00
9307;BME280;4691;47.612;7.610;2023-05-02T12:41:59;99058.13;;;26.50;100.00
9307;BME280;4691;47.612;7.610;2023-05-02T12:44:38;99053.94;;;27.31;100.00
9307;BME280;4691;47.612;7.610;2023-05-02T12:47:03;99065.66;;;26.75;100.00
9307;BME280;4691;47.612;7.610;2023-05-02T12:49:29;99089.88;;;25.60;100.00
9307;BME280;4691;47.612;7.610;2023-05-02T12:51:55;99095.56;;;25.92;100.00
9307;BME280;4691;47.612;7.610;2023-05-02T12:54:21;99068.28;;;27.33;100.00
9307;BME280;4691;47.612;7.610;2023-05-02T12:56:46;99029.94;;;27.20;100.00
9307;BME280;4691;47.612;7.610;2023-05-02T12:59:25;99011.31;;;27.29;100.00
9307;BME280;4691;47.612;7.610;2023-05-02T13:01:51;99000.72;;;27.83;100.00
9307;BME280;4691;47.612;7.610;2023-05-02T13:04:16;99028.00;;;26.89;100.00
9307;BME280;4691;47.612;7.610;2023-05-02T13:06:41;99002.66;;;27.50;100.00
9307;BME280;4691;47.612;7.610;2023-05-02T13:09:06;98996.81;;;26.83;100.00
9307;BME280;4691;47.612;7.610;2023-05-02T13:11:32;99018.16;;;27.13;100.00
9307;BME280;4691;47.612;7.610;2023-05-02T13:13:57;99061.09;;;27.01;100.00
9307;BME280;4691;47.612;7.610;2023-05-02T13:16:25;99006.06;;;27.46;100.00
9307;BME280;4691;47.612;7.610;2023-05-02T13:18:50;99017.50;;;26.79;100.00
9307;BME280;4691;47.612;7.610;2023-05-02T13:21:16;99059.06;;;25.11;100.00
9307;BME280;4691;47.612;7.610;2023-05-02T13:23:41;99074.22;;;25.14;100.00
9307;BME280;4691;47.612;7.610;2023-05-02T13:26:08;99031.94;;;27.00;100.00
9307;BME280;4691;47.612;7.610;2023-05-02T13:28:33;98979.38;;;27.03;100.00
9307;BME280;4691;47.612;7.610;2023-05-02T13:31:01;99014.81;;;27.61;100.00
9307;BME280;4691;47.612;7.610;2023-05-02T13:33:26;99012.44;;;27.90;100.00
9307;BME280;4691;47.612;7.610;2023-05-02T13:35:51;98998.25;;;26.47;100.00
9307;BME280;4691;47.612;7.610;2023-05-02T13:38:17;99022.47;;;25.19;100.00
9307;BME280;4691;47.612;7.610;2023-05-02T13:40:42;99011.53;;;25.92;100.00
9307;BME280;4691;47.612;7.610;2023-05-02T13:43:07;98971.09;;;27.41;100.00
9307;BME280;4691;47.612;7.610;2023-05-02T13:45:33;99005.97;;;26.12;100.00
9307;BME280;4691;47.612;7.610;2023-05-02T13:47:58;98969.03;;;27.55;100.00
9307;BME280;4691;47.612;7.610;2023-05-02T13:50:23;98996.78;;;27.15;100.00
9307;BME280;4691;47.612;7.610;2023-05-02T13:52:49;98973.44;;;27.81;100.00
9307;BME280;4691;47.612;7.610;2023-05-02T13:55:14;99013.44;;;26.43;100.00
9307;BME280;4691;47.612;7.610;2023-05-02T13:57:40;99011.19;;;27.67;100.00
9307;BME280;4691;47.612;7.610;2023-05-02T14:00:05;98969.97;;;27.17;100.00